Terminal Aerodrome Forecast
Issued by NWS Kansas City/Pleasant Hill, MO

Home | Current Version | Previous Version | Text Only | Print | Product List | Glossary On
Versions: 1 2 3 4 5 6 7 8 9 10 11 12 13 14 15 16 17 18 19
000
FTUS43 KEAX 011300 AAA
TAFMCI
TAF AMD
KMCI 011355Z 0114/0212 18013KT P6SM VCSH SCT040 OVC080
      TEMPO 0114/0115 4SM -TSRA BKN030CB
     FM011700 20010KT P6SM BKN050
     FM012200 18007KT P6SM VCTS BKN050CB
     FM020400 14006KT 3SM TSRA BR SCT025 OVC040CB=

USA.gov is the U.S. government's official web portal to all federal, state and local government web resources and services.